Heaton Chapel, United Kingdom
Current Conditions -  °F | °C
As of 4:20 AM on Tuesday 23 Dec 2014 (Local Time) from EGCC Reporting Station
Broken Clouds Broken Clouds  
Wind Chill: 52°   Ceiling: 1600
Heat Index: 52°   Visibility: 6mi
Dew Point: 46°   Wind: 20mph
Humidity: 82%   Direction: 230°SW
Pressure: 29.85"   Gusts: NA
Location:  53.43°N, 2.18°W
Report Text: EGCC 230420Z AUTO 23017KT 9999 BKN016 BKN022 11/08 Q1011
Loading
Personal Weather Stations






























Interactive Weather Map New forecast layout! Learn more

10-Day Weather Forecast

Advertisements
Track Severe Weather on mobile